sensor_id;sensor_type;location;lat;lon;timestamp;pressure;altitude;pressure_sealevel;temperature;humidity
61357;BME280;47227;46.752;23.576;2022-12-07T00:01:38;96180.50;;;3.59;95.87
61357;BME280;47227;46.752;23.576;2022-12-07T00:04:09;96183.95;;;3.62;95.86
61357;BME280;47227;46.752;23.576;2022-12-07T00:06:41;96186.06;;;3.66;95.33
61357;BME280;47227;46.752;23.576;2022-12-07T00:09:13;96186.08;;;3.70;95.60
61357;BME280;47227;46.752;23.576;2022-12-07T00:11:41;96187.94;;;3.77;95.19
61357;BME280;47227;46.752;23.576;2022-12-07T00:14:12;96186.66;;;3.84;95.04
61357;BME280;47227;46.752;23.576;2022-12-07T00:16:41;96187.76;;;3.90;94.90
61357;BME280;47227;46.752;23.576;2022-12-07T00:19:11;96187.02;;;3.94;94.53
61357;BME280;47227;46.752;23.576;2022-12-07T00:21:39;96192.27;;;3.99;94.51
61357;BME280;47227;46.752;23.576;2022-12-07T00:24:07;96195.04;;;4.04;94.41
61357;BME280;47227;46.752;23.576;2022-12-07T00:26:37;96192.34;;;4.09;94.40
61357;BME280;47227;46.752;23.576;2022-12-07T00:29:09;96191.83;;;4.14;94.15
61357;BME280;47227;46.752;23.576;2022-12-07T00:31:39;96195.96;;;4.16;93.93
61357;BME280;47227;46.752;23.576;2022-12-07T00:34:11;96194.91;;;4.19;93.92
61357;BME280;47227;46.752;23.576;2022-12-07T00:36:39;96200.02;;;4.25;93.94
61357;BME280;47227;46.752;23.576;2022-12-07T00:39:07;96196.59;;;4.27;93.89
61357;BME280;47227;46.752;23.576;2022-12-07T00:41:36;96194.04;;;4.27;93.60
61357;BME280;47227;46.752;23.576;2022-12-07T00:44:04;96194.31;;;4.25;93.24
61357;BME280;47227;46.752;23.576;2022-12-07T00:46:32;96192.42;;;4.21;93.20
61357;BME280;47227;46.752;23.576;2022-12-07T00:49:00;96186.66;;;4.15;93.00
61357;BME280;47227;46.752;23.576;2022-12-07T00:51:28;96178.52;;;4.08;93.09
61357;BME280;47227;46.752;23.576;2022-12-07T00:53:55;96179.67;;;4.02;93.06
61357;BME280;47227;46.752;23.576;2022-12-07T00:56:25;96182.70;;;3.95;93.07
61357;BME280;47227;46.752;23.576;2022-12-07T00:58:57;96178.65;;;3.88;93.12
61357;BME280;47227;46.752;23.576;2022-12-07T01:01:28;96178.58;;;3.80;92.91
61357;BME280;47227;46.752;23.576;2022-12-07T01:03:57;96179.02;;;3.71;92.85
61357;BME280;47227;46.752;23.576;2022-12-07T01:06:27;96179.64;;;3.64;93.01
61357;BME280;47227;46.752;23.576;2022-12-07T01:08:55;96173.92;;;3.57;92.93
61357;BME280;47227;46.752;23.576;2022-12-07T01:11:26;96173.95;;;3.50;92.72
61357;BME280;47227;46.752;23.576;2022-12-07T01:13:55;96172.30;;;3.43;93.03
61357;BME280;47227;46.752;23.576;2022-12-07T01:16:26;96165.65;;;3.36;93.17
61357;BME280;47227;46.752;23.576;2022-12-07T01:18:55;96168.48;;;3.26;93.08
61357;BME280;47227;46.752;23.576;2022-12-07T01:21:27;96171.11;;;3.16;92.81
61357;BME280;47227;46.752;23.576;2022-12-07T01:23:57;96170.03;;;3.08;93.11
61357;BME280;47227;46.752;23.576;2022-12-07T01:26:26;96170.91;;;3.02;92.85
61357;BME280;47227;46.752;23.576;2022-12-07T01:28:54;96171.55;;;2.99;92.70
61357;BME280;47227;46.752;23.576;2022-12-07T01:31:25;96165.41;;;2.98;93.06
61357;BME280;47227;46.752;23.576;2022-12-07T01:33:56;96165.58;;;2.97;94.48
61357;BME280;47227;46.752;23.576;2022-12-07T01:36:28;96160.43;;;2.95;93.80
61357;BME280;47227;46.752;23.576;2022-12-07T01:38:59;96157.92;;;2.96;93.50
61357;BME280;47227;46.752;23.576;2022-12-07T01:41:31;96156.00;;;2.97;93.49
61357;BME280;47227;46.752;23.576;2022-12-07T01:44:21;96151.81;;;2.97;93.30
61357;BME280;47227;46.752;23.576;2022-12-07T01:46:51;96155.00;;;2.98;93.28
61357;BME280;47227;46.752;23.576;2022-12-07T01:49:39;96153.21;;;2.99;93.32
61357;BME280;47227;46.752;23.576;2022-12-07T01:52:30;96153.17;;;2.99;93.19
61357;BME280;47227;46.752;23.576;2022-12-07T01:55:03;96154.92;;;2.99;93.06
61357;BME280;47227;46.752;23.576;2022-12-07T01:57:34;96158.66;;;2.98;93.17
61357;BME280;47227;46.752;23.576;2022-12-07T02:00:06;96162.06;;;2.97;93.19
61357;BME280;47227;46.752;23.576;2022-12-07T02:02:48;96156.16;;;2.93;93.06
61357;BME280;47227;46.752;23.576;2022-12-07T02:05:19;96155.34;;;2.89;93.11
61357;BME280;47227;46.752;23.576;2022-12-07T02:07:47;96156.07;;;2.83;92.98
61357;BME280;47227;46.752;23.576;2022-12-07T02:10:20;96154.64;;;2.73;92.82
61357;BME280;47227;46.752;23.576;2022-12-07T02:12:52;96150.10;;;2.65;92.66
61357;BME280;47227;46.752;23.576;2022-12-07T02:15:27;96147.36;;;2.54;92.40
61357;BME280;47227;46.752;23.576;2022-12-07T02:18:05;96149.50;;;2.43;92.43
61357;BME280;47227;46.752;23.576;2022-12-07T02:20:43;96151.68;;;2.34;92.47
61357;BME280;47227;46.752;23.576;2022-12-07T02:23:40;96154.62;;;2.23;92.15
61357;BME280;47227;46.752;23.576;2022-12-07T02:29:11;96154.98;;;1.99;92.12
61357;BME280;47227;46.752;23.576;2022-12-07T02:31:55;96153.56;;;1.88;92.39
61357;BME280;47227;46.752;23.576;2022-12-07T02:34:34;96160.17;;;1.77;92.35
61357;BME280;47227;46.752;23.576;2022-12-07T02:37:12;96162.52;;;1.66;91.99
61357;BME280;47227;46.752;23.576;2022-12-07T02:39:53;96157.75;;;1.58;92.03
61357;BME280;47227;46.752;23.576;2022-12-07T02:42:28;96152.12;;;1.49;92.02
61357;BME280;47227;46.752;23.576;2022-12-07T02:44:59;96148.83;;;1.42;92.13
61357;BME280;47227;46.752;23.576;2022-12-07T02:47:29;96147.21;;;1.39;92.66
61357;BME280;47227;46.752;23.576;2022-12-07T02:49:57;96145.35;;;1.40;92.86
61357;BME280;47227;46.752;23.576;2022-12-07T02:52:25;96142.89;;;1.48;96.50
61357;BME280;47227;46.752;23.576;2022-12-07T02:54:53;96141.06;;;1.59;98.38
61357;BME280;47227;46.752;23.576;2022-12-07T02:57:40;96134.36;;;1.69;98.80
61357;BME280;47227;46.752;23.576;2022-12-07T03:00:13;96134.02;;;1.83;97.40
61357;BME280;47227;46.752;23.576;2022-12-07T03:02:58;96132.17;;;1.96;96.69
61357;BME280;47227;46.752;23.576;2022-12-07T03:08:31;96126.16;;;2.26;96.93
61357;BME280;47227;46.752;23.576;2022-12-07T03:11:17;96125.02;;;2.38;96.97
61357;BME280;47227;46.752;23.576;2022-12-07T03:13:56;96126.20;;;2.48;97.25
61357;BME280;47227;46.752;23.576;2022-12-07T03:16:33;96124.21;;;2.55;97.01
61357;BME280;47227;46.752;23.576;2022-12-07T03:19:07;96121.23;;;2.63;96.37
61357;BME280;47227;46.752;23.576;2022-12-07T03:21:39;96120.49;;;2.69;95.84
61357;BME280;47227;46.752;23.576;2022-12-07T03:24:13;96116.95;;;2.69;95.05
61357;BME280;47227;46.752;23.576;2022-12-07T03:26:45;96126.95;;;2.65;94.59
61357;BME280;47227;46.752;23.576;2022-12-07T03:29:21;96135.88;;;2.64;94.61
61357;BME280;47227;46.752;23.576;2022-12-07T03:31:56;96136.91;;;2.61;94.41
61357;BME280;47227;46.752;23.576;2022-12-07T03:34:32;96140.98;;;2.55;94.06
61357;BME280;47227;46.752;23.576;2022-12-07T03:37:07;96138.27;;;2.48;93.87
61357;BME280;47227;46.752;23.576;2022-12-07T03:39:45;96142.34;;;2.41;93.59
61357;BME280;47227;46.752;23.576;2022-12-07T03:42:14;96140.98;;;2.33;93.71
61357;BME280;47227;46.752;23.576;2022-12-07T03:44:42;96146.63;;;2.29;94.08
61357;BME280;47227;46.752;23.576;2022-12-07T03:47:20;96149.45;;;2.26;94.25
61357;BME280;47227;46.752;23.576;2022-12-07T03:49:56;96149.08;;;2.22;94.17
61357;BME280;47227;46.752;23.576;2022-12-07T03:52:36;96158.39;;;2.18;94.43
61357;BME280;47227;46.752;23.576;2022-12-07T03:55:25;96159.83;;;2.14;94.14
61357;BME280;47227;46.752;23.576;2022-12-07T03:57:58;96161.85;;;2.11;94.05
61357;BME280;47227;46.752;23.576;2022-12-07T04:00:28;96167.94;;;2.07;93.94
61357;BME280;47227;46.752;23.576;2022-12-07T04:02:56;96169.07;;;2.02;94.00
61357;BME280;47227;46.752;23.576;2022-12-07T04:05:26;96167.19;;;1.97;94.82
61357;BME280;47227;46.752;23.576;2022-12-07T04:07:54;96166.42;;;1.93;95.23
61357;BME280;47227;46.752;23.576;2022-12-07T04:10:22;96166.58;;;1.91;95.27
61357;BME280;47227;46.752;23.576;2022-12-07T04:12:50;96164.69;;;1.89;95.47
61357;BME280;47227;46.752;23.576;2022-12-07T04:15:18;96165.89;;;1.86;95.82
61357;BME280;47227;46.752;23.576;2022-12-07T04:17:46;96159.83;;;1.81;95.99
61357;BME280;47227;46.752;23.576;2022-12-07T04:20:14;96158.11;;;1.78;95.62
61357;BME280;47227;46.752;23.576;2022-12-07T04:22:42;96150.50;;;1.77;95.32
61357;BME280;47227;46.752;23.576;2022-12-07T04:25:10;96147.80;;;1.77;95.34
61357;BME280;47227;46.752;23.576;2022-12-07T04:27:41;96144.10;;;1.76;95.41
61357;BME280;47227;46.752;23.576;2022-12-07T04:30:09;96139.84;;;1.76;95.60
61357;BME280;47227;46.752;23.576;2022-12-07T04:32:37;96142.91;;;1.77;95.44
61357;BME280;47227;46.752;23.576;2022-12-07T04:35:05;96140.41;;;1.82;95.55
61357;BME280;47227;46.752;23.576;2022-12-07T04:37:33;96134.73;;;1.87;95.38
61357;BME280;47227;46.752;23.576;2022-12-07T04:40:01;96139.67;;;1.92;95.52
61357;BME280;47227;46.752;23.576;2022-12-07T04:42:30;96143.15;;;1.99;95.53
61357;BME280;47227;46.752;23.576;2022-12-07T04:44:58;96140.43;;;2.03;94.98
61357;BME280;47227;46.752;23.576;2022-12-07T04:47:25;96145.16;;;2.01;95.04
61357;BME280;47227;46.752;23.576;2022-12-07T04:49:53;96152.28;;;2.01;94.83
61357;BME280;47227;46.752;23.576;2022-12-07T04:52:21;96154.98;;;2.01;94.74
61357;BME280;47227;46.752;23.576;2022-12-07T04:54:49;96153.11;;;2.01;94.54
61357;BME280;47227;46.752;23.576;2022-12-07T04:57:17;96153.56;;;1.93;94.60
61357;BME280;47227;46.752;23.576;2022-12-07T04:59:44;96152.67;;;1.87;94.42
61357;BME280;47227;46.752;23.576;2022-12-07T05:02:12;96155.42;;;1.86;94.65
61357;BME280;47227;46.752;23.576;2022-12-07T05:04:43;96152.52;;;1.84;94.94
61357;BME280;47227;46.752;23.576;2022-12-07T05:07:11;96151.20;;;1.85;94.66
61357;BME280;47227;46.752;23.576;2022-12-07T05:09:39;96151.84;;;1.85;94.58
61357;BME280;47227;46.752;23.576;2022-12-07T05:12:07;96154.42;;;1.85;94.46
61357;BME280;47227;46.752;23.576;2022-12-07T05:14:35;96152.23;;;1.85;94.46
61357;BME280;47227;46.752;23.576;2022-12-07T05:17:03;96151.95;;;1.97;95.45
61357;BME280;47227;46.752;23.576;2022-12-07T05:19:31;96155.15;;;2.08;95.19
61357;BME280;47227;46.752;23.576;2022-12-07T05:21:59;96157.61;;;2.10;94.59
61357;BME280;47227;46.752;23.576;2022-12-07T05:24:27;96160.17;;;2.10;94.24
61357;BME280;47227;46.752;23.576;2022-12-07T05:26:55;96166.83;;;2.11;94.13
61357;BME280;47227;46.752;23.576;2022-12-07T05:29:23;96168.36;;;2.12;93.93
61357;BME280;47227;46.752;23.576;2022-12-07T05:31:51;96170.52;;;2.12;93.86
61357;BME280;47227;46.752;23.576;2022-12-07T05:34:19;96168.34;;;2.13;93.75
61357;BME280;47227;46.752;23.576;2022-12-07T05:36:47;96172.76;;;2.13;93.69
61357;BME280;47227;46.752;23.576;2022-12-07T05:39:15;96177.05;;;2.15;93.38
61357;BME280;47227;46.752;23.576;2022-12-07T05:41:43;96171.58;;;2.19;93.62
61357;BME280;47227;46.752;23.576;2022-12-07T05:44:26;96177.91;;;2.20;93.22
61357;BME280;47227;46.752;23.576;2022-12-07T05:46:54;96183.83;;;2.19;93.19
61357;BME280;47227;46.752;23.576;2022-12-07T05:49:22;96185.79;;;2.20;93.00
61357;BME280;47227;46.752;23.576;2022-12-07T05:51:50;96191.83;;;2.21;92.87
61357;BME280;47227;46.752;23.576;2022-12-07T05:54:18;96189.48;;;2.23;92.60
61357;BME280;47227;46.752;23.576;2022-12-07T05:56:46;96194.29;;;2.27;93.02
61357;BME280;47227;46.752;23.576;2022-12-07T05:59:14;96191.22;;;2.32;93.28
61357;BME280;47227;46.752;23.576;2022-12-07T06:01:59;96188.64;;;2.37;93.62
61357;BME280;47227;46.752;23.576;2022-12-07T06:04:30;96188.57;;;2.37;93.05
61357;BME280;47227;46.752;23.576;2022-12-07T06:06:58;96183.97;;;2.30;92.36
61357;BME280;47227;46.752;23.576;2022-12-07T06:09:27;96187.02;;;2.26;92.50
61357;BME280;47227;46.752;23.576;2022-12-07T06:11:56;96188.65;;;2.19;92.28
61357;BME280;47227;46.752;23.576;2022-12-07T06:14:39;96188.84;;;2.10;92.63
61357;BME280;47227;46.752;23.576;2022-12-07T06:17:07;96191.34;;;2.08;92.48
61357;BME280;47227;46.752;23.576;2022-12-07T06:19:38;96191.88;;;2.05;92.56
61357;BME280;47227;46.752;23.576;2022-12-07T06:22:06;96192.96;;;2.05;92.63
61357;BME280;47227;46.752;23.576;2022-12-07T06:24:35;96193.42;;;2.03;92.45
61357;BME280;47227;46.752;23.576;2022-12-07T06:27:05;96193.70;;;1.99;92.34
61357;BME280;47227;46.752;23.576;2022-12-07T06:29:33;96198.02;;;1.96;92.37
61357;BME280;47227;46.752;23.576;2022-12-07T06:32:02;96201.16;;;1.93;92.26
61357;BME280;47227;46.752;23.576;2022-12-07T06:34:30;96206.52;;;1.90;92.30
61357;BME280;47227;46.752;23.576;2022-12-07T06:36:59;96203.96;;;1.89;92.23
61357;BME280;47227;46.752;23.576;2022-12-07T06:39:32;96207.05;;;1.86;92.23
61357;BME280;47227;46.752;23.576;2022-12-07T06:42:00;96206.33;;;1.81;92.67
61357;BME280;47227;46.752;23.576;2022-12-07T06:44:34;96207.67;;;1.79;93.20
61357;BME280;47227;46.752;23.576;2022-12-07T06:47:02;96208.11;;;1.81;92.80
61357;BME280;47227;46.752;23.576;2022-12-07T06:49:51;96201.80;;;1.80;92.45
61357;BME280;47227;46.752;23.576;2022-12-07T06:55:15;96198.00;;;1.88;92.60
61357;BME280;47227;46.752;23.576;2022-12-07T06:57:43;96200.14;;;1.95;92.66
61357;BME280;47227;46.752;23.576;2022-12-07T07:00:17;96196.80;;;1.99;92.59
61357;BME280;47227;46.752;23.576;2022-12-07T07:03:10;96199.98;;;2.07;92.27
61357;BME280;47227;46.752;23.576;2022-12-07T07:06:08;96195.02;;;2.17;92.31
61357;BME280;47227;46.752;23.576;2022-12-07T07:08:47;96194.11;;;2.23;91.86
61357;BME280;47227;46.752;23.576;2022-12-07T07:11:24;96194.40;;;2.29;91.67
61357;BME280;47227;46.752;23.576;2022-12-07T07:14:05;96186.64;;;2.31;91.40
61357;BME280;47227;46.752;23.576;2022-12-07T07:18:11;96183.18;;;2.37;91.48
61357;BME280;47227;46.752;23.576;2022-12-07T07:24:30;96183.66;;;2.37;90.62
61357;BME280;47227;46.752;23.576;2022-12-07T07:28:33;96186.55;;;2.27;89.78
61357;BME280;47227;46.752;23.576;2022-12-07T07:32:32;96186.05;;;2.15;89.81
61357;BME280;47227;46.752;23.576;2022-12-07T09:09:09;96184.94;;;2.37;91.63
61357;BME280;47227;46.752;23.576;2022-12-07T09:48:08;96172.72;;;2.43;93.23
61357;BME280;47227;46.752;23.576;2022-12-07T09:52:38;96162.36;;;2.72;91.98
61357;BME280;47227;46.752;23.576;2022-12-07T10:11:09;96155.24;;;4.33;84.51
61357;BME280;47227;46.752;23.576;2022-12-07T10:14:16;96154.02;;;4.36;83.27
61357;BME280;47227;46.752;23.576;2022-12-07T10:22:12;96153.45;;;4.55;83.31
61357;BME280;47227;46.752;23.576;2022-12-07T10:24:45;96153.55;;;4.55;82.35
61357;BME280;47227;46.752;23.576;2022-12-07T10:27:30;96151.60;;;4.66;83.41
61357;BME280;47227;46.752;23.576;2022-12-07T10:35:15;96142.23;;;4.96;84.32
61357;BME280;47227;46.752;23.576;2022-12-07T10:38:30;96142.20;;;4.99;80.31
61357;BME280;47227;46.752;23.576;2022-12-07T10:41:08;96133.40;;;5.04;80.51
61357;BME280;47227;46.752;23.576;2022-12-07T10:43:50;96129.16;;;5.30;81.35
61357;BME280;47227;46.752;23.576;2022-12-07T10:46:55;96128.25;;;5.63;81.28
61357;BME280;47227;46.752;23.576;2022-12-07T10:52:58;96119.19;;;6.04;79.86
61357;BME280;47227;46.752;23.576;2022-12-07T10:58:51;96120.83;;;6.15;78.22
61357;BME280;47227;46.752;23.576;2022-12-07T13:08:51;96055.63;;;9.41;57.17
61357;BME280;47227;46.752;23.576;2022-12-07T13:11:41;96051.66;;;9.15;58.27
61357;BME280;47227;46.752;23.576;2022-12-07T13:14:51;96050.03;;;8.97;58.85
61357;BME280;47227;46.752;23.576;2022-12-07T13:20:48;96052.42;;;8.81;60.13
61357;BME280;47227;46.752;23.576;2022-12-07T13:23:24;96058.05;;;8.65;59.95
61357;BME280;47227;46.752;23.576;2022-12-07T13:26:14;96059.98;;;8.37;60.56
61357;BME280;47227;46.752;23.576;2022-12-07T13:28:49;96056.58;;;7.89;61.11
61357;BME280;47227;46.752;23.576;2022-12-07T13:31:27;96056.51;;;7.62;62.09
61357;BME280;47227;46.752;23.576;2022-12-07T13:34:00;96059.96;;;7.29;62.71
61357;BME280;47227;46.752;23.576;2022-12-07T13:36:33;96061.96;;;7.14;63.13
61357;BME280;47227;46.752;23.576;2022-12-07T13:39:22;96060.41;;;7.01;63.79
61357;BME280;47227;46.752;23.576;2022-12-07T13:41:55;96061.02;;;6.89;64.43
61357;BME280;47227;46.752;23.576;2022-12-07T13:44:39;96061.73;;;6.57;65.47
61357;BME280;47227;46.752;23.576;2022-12-07T13:47:23;96060.87;;;6.32;66.19
61357;BME280;47227;46.752;23.576;2022-12-07T13:50:28;96059.05;;;6.08;66.90
61357;BME280;47227;46.752;23.576;2022-12-07T13:52:58;96062.41;;;5.90;67.30
61357;BME280;47227;46.752;23.576;2022-12-07T13:55:37;96061.64;;;5.69;67.93
61357;BME280;47227;46.752;23.576;2022-12-07T13:58:18;96058.55;;;5.50;68.75
61357;BME280;47227;46.752;23.576;2022-12-07T14:00:50;96058.05;;;5.35;69.08
61357;BME280;47227;46.752;23.576;2022-12-07T14:03:26;96059.78;;;5.24;69.41
61357;BME280;47227;46.752;23.576;2022-12-07T14:06:15;96063.58;;;5.10;70.82
61357;BME280;47227;46.752;23.576;2022-12-07T14:08:48;96060.70;;;4.96;71.49
61357;BME280;47227;46.752;23.576;2022-12-07T14:11:22;96059.67;;;4.87;71.19
61357;BME280;47227;46.752;23.576;2022-12-07T14:13:58;96064.33;;;4.81;71.32
61357;BME280;47227;46.752;23.576;2022-12-07T14:16:37;96064.46;;;4.72;71.89
61357;BME280;47227;46.752;23.576;2022-12-07T14:19:43;96067.33;;;4.64;73.32
61357;BME280;47227;46.752;23.576;2022-12-07T14:22:34;96068.50;;;4.55;73.41
61357;BME280;47227;46.752;23.576;2022-12-07T14:25:24;96073.30;;;4.50;72.87
61357;BME280;47227;46.752;23.576;2022-12-07T14:27:58;96080.20;;;4.45;72.70
61357;BME280;47227;46.752;23.576;2022-12-07T14:30:32;96081.17;;;4.40;73.70
61357;BME280;47227;46.752;23.576;2022-12-07T14:33:03;96078.15;;;4.32;73.65
61357;BME280;47227;46.752;23.576;2022-12-07T14:35:33;96083.92;;;4.24;73.35
61357;BME280;47227;46.752;23.576;2022-12-07T14:38:09;96083.35;;;4.16;73.20
61357;BME280;47227;46.752;23.576;2022-12-07T14:40:39;96084.02;;;4.06;75.46
61357;BME280;47227;46.752;23.576;2022-12-07T14:43:11;96086.32;;;3.97;75.34
61357;BME280;47227;46.752;23.576;2022-12-07T14:45:41;96087.61;;;3.87;74.82
61357;BME280;47227;46.752;23.576;2022-12-07T14:48:11;96086.03;;;3.79;74.88
61357;BME280;47227;46.752;23.576;2022-12-07T14:51:00;96084.36;;;3.64;76.46
61357;BME280;47227;46.752;23.576;2022-12-07T14:53:50;96083.71;;;3.50;77.15
61357;BME280;47227;46.752;23.576;2022-12-07T14:56:26;96090.27;;;3.37;77.65
61357;BME280;47227;46.752;23.576;2022-12-07T14:58:59;96086.05;;;3.25;78.77
61357;BME280;47227;46.752;23.576;2022-12-07T15:01:27;96083.53;;;3.17;78.06
61357;BME280;47227;46.752;23.576;2022-12-07T15:03:55;96079.17;;;3.08;79.86
61357;BME280;47227;46.752;23.576;2022-12-07T15:06:27;96080.92;;;3.00;80.72
61357;BME280;47227;46.752;23.576;2022-12-07T15:08:55;96083.35;;;2.94;79.24
61357;BME280;47227;46.752;23.576;2022-12-07T15:11:26;96079.63;;;2.87;79.52
61357;BME280;47227;46.752;23.576;2022-12-07T15:13:54;96076.89;;;2.82;79.04
61357;BME280;47227;46.752;23.576;2022-12-07T15:16:37;96073.36;;;2.78;78.94
61357;BME280;47227;46.752;23.576;2022-12-07T15:19:27;96073.27;;;2.76;78.43
61357;BME280;47227;46.752;23.576;2022-12-07T15:21:57;96074.71;;;2.77;78.39
61357;BME280;47227;46.752;23.576;2022-12-07T15:24:27;96076.66;;;2.78;78.29
61357;BME280;47227;46.752;23.576;2022-12-07T15:26:56;96079.02;;;2.79;80.06
61357;BME280;47227;46.752;23.576;2022-12-07T15:29:25;96086.27;;;2.79;79.73
61357;BME280;47227;46.752;23.576;2022-12-07T15:31:54;96088.48;;;2.80;79.40
61357;BME280;47227;46.752;23.576;2022-12-07T15:34:26;96084.78;;;2.84;79.05
61357;BME280;47227;46.752;23.576;2022-12-07T15:37:04;96090.60;;;2.84;79.24
61357;BME280;47227;46.752;23.576;2022-12-07T15:39:33;96095.56;;;2.83;78.99
61357;BME280;47227;46.752;23.576;2022-12-07T15:42:02;96094.14;;;2.83;79.10
61357;BME280;47227;46.752;23.576;2022-12-07T15:44:30;96100.36;;;2.84;79.16
61357;BME280;47227;46.752;23.576;2022-12-07T15:47:17;96104.02;;;2.83;79.15
61357;BME280;47227;46.752;23.576;2022-12-07T15:49:45;96102.99;;;2.77;78.76
61357;BME280;47227;46.752;23.576;2022-12-07T15:52:13;96103.64;;;2.70;78.83
61357;BME280;47227;46.752;23.576;2022-12-07T15:54:41;96105.08;;;2.63;78.70
61357;BME280;47227;46.752;23.576;2022-12-07T15:57:10;96112.94;;;2.57;78.72
61357;BME280;47227;46.752;23.576;2022-12-07T15:59:38;96113.15;;;2.49;78.75
61357;BME280;47227;46.752;23.576;2022-12-07T16:02:06;96114.55;;;2.42;79.01
61357;BME280;47227;46.752;23.576;2022-12-07T16:04:35;96121.87;;;2.36;78.92
61357;BME280;47227;46.752;23.576;2022-12-07T16:07:03;96119.55;;;2.30;79.00
61357;BME280;47227;46.752;23.576;2022-12-07T16:09:31;96116.28;;;2.23;79.27
61357;BME280;47227;46.752;23.576;2022-12-07T16:11:59;96113.48;;;2.17;79.44
61357;BME280;47227;46.752;23.576;2022-12-07T16:14:27;96118.63;;;2.10;79.42
61357;BME280;47227;46.752;23.576;2022-12-07T16:16:55;96122.92;;;2.05;79.45
61357;BME280;47227;46.752;23.576;2022-12-07T16:19:23;96125.73;;;2.01;79.43
61357;BME280;47227;46.752;23.576;2022-12-07T16:21:51;96123.48;;;1.95;79.35
61357;BME280;47227;46.752;23.576;2022-12-07T16:24:19;96122.56;;;1.90;79.41
61357;BME280;47227;46.752;23.576;2022-12-07T16:26:47;96119.41;;;1.85;79.58
61357;BME280;47227;46.752;23.576;2022-12-07T16:29:19;96118.96;;;1.81;79.67
61357;BME280;47227;46.752;23.576;2022-12-07T16:31:48;96119.84;;;1.77;79.63
61357;BME280;47227;46.752;23.576;2022-12-07T16:34:16;96120.86;;;1.72;79.58
61357;BME280;47227;46.752;23.576;2022-12-07T16:36:45;96122.24;;;1.68;79.69
61357;BME280;47227;46.752;23.576;2022-12-07T16:39:33;96121.50;;;1.63;79.70
61357;BME280;47227;46.752;23.576;2022-12-07T16:42:02;96123.00;;;1.58;79.74
61357;BME280;47227;46.752;23.576;2022-12-07T16:44:30;96124.38;;;1.54;79.75
61357;BME280;47227;46.752;23.576;2022-12-07T16:46:59;96123.39;;;1.53;79.89
61357;BME280;47227;46.752;23.576;2022-12-07T16:49:30;96128.46;;;1.52;80.08
61357;BME280;47227;46.752;23.576;2022-12-07T16:51:58;96130.96;;;1.51;80.23
61357;BME280;47227;46.752;23.576;2022-12-07T16:54:46;96135.14;;;1.53;80.50
61357;BME280;47227;46.752;23.576;2022-12-07T16:57:16;96134.84;;;1.54;81.71
61357;BME280;47227;46.752;23.576;2022-12-07T16:59:51;96134.89;;;1.56;81.07
61357;BME280;47227;46.752;23.576;2022-12-07T17:02:20;96132.23;;;1.62;81.41
61357;BME280;47227;46.752;23.576;2022-12-07T17:04:48;96133.09;;;1.67;81.65
61357;BME280;47227;46.752;23.576;2022-12-07T17:07:16;96129.23;;;1.72;81.76
61357;BME280;47227;46.752;23.576;2022-12-07T17:09:44;96128.98;;;1.75;81.99
61357;BME280;47227;46.752;23.576;2022-12-07T17:12:12;96131.00;;;1.74;82.91
61357;BME280;47227;46.752;23.576;2022-12-07T17:14:41;96129.40;;;1.70;82.43
61357;BME280;47227;46.752;23.576;2022-12-07T17:17:25;96134.56;;;1.69;82.20
61357;BME280;47227;46.752;23.576;2022-12-07T17:19:52;96138.77;;;1.66;82.47
61357;BME280;47227;46.752;23.576;2022-12-07T17:22:20;96145.88;;;1.61;82.34
61357;BME280;47227;46.752;23.576;2022-12-07T17:24:48;96143.08;;;1.56;82.18
61357;BME280;47227;46.752;23.576;2022-12-07T17:27:16;96143.77;;;1.51;82.70
61357;BME280;47227;46.752;23.576;2022-12-07T17:29:44;96142.86;;;1.43;82.21
61357;BME280;47227;46.752;23.576;2022-12-07T17:32:12;96139.27;;;1.38;82.46
61357;BME280;47227;46.752;23.576;2022-12-07T17:34:41;96140.15;;;1.29;83.37
61357;BME280;47227;46.752;23.576;2022-12-07T17:37:08;96141.69;;;1.21;82.95
61357;BME280;47227;46.752;23.576;2022-12-07T17:39:37;96143.81;;;1.11;82.77
61357;BME280;47227;46.752;23.576;2022-12-07T17:42:04;96144.83;;;0.98;83.49
61357;BME280;47227;46.752;23.576;2022-12-07T17:44:46;96151.72;;;0.88;83.16
61357;BME280;47227;46.752;23.576;2022-12-07T17:47:14;96157.34;;;0.79;83.74
61357;BME280;47227;46.752;23.576;2022-12-07T17:49:44;96165.27;;;0.72;83.42
61357;BME280;47227;46.752;23.576;2022-12-07T17:52:14;96165.64;;;0.64;83.75
61357;BME280;47227;46.752;23.576;2022-12-07T17:54:57;96160.75;;;0.57;84.29
61357;BME280;47227;46.752;23.576;2022-12-07T17:57:25;96159.04;;;0.51;83.83
61357;BME280;47227;46.752;23.576;2022-12-07T17:59:53;96158.25;;;0.48;84.19
61357;BME280;47227;46.752;23.576;2022-12-07T18:02:22;96156.70;;;0.45;84.64
61357;BME280;47227;46.752;23.576;2022-12-07T18:04:49;96157.59;;;0.43;84.22
61357;BME280;47227;46.752;23.576;2022-12-07T18:07:18;96154.99;;;0.42;84.45
61357;BME280;47227;46.752;23.576;2022-12-07T18:09:45;96153.79;;;0.40;84.43
61357;BME280;47227;46.752;23.576;2022-12-07T18:12:13;96157.02;;;0.39;84.60
61357;BME280;47227;46.752;23.576;2022-12-07T18:14:41;96154.88;;;0.37;84.46
61357;BME280;47227;46.752;23.576;2022-12-07T18:17:09;96159.49;;;0.39;84.60
61357;BME280;47227;46.752;23.576;2022-12-07T18:19:37;96160.40;;;0.42;84.70
61357;BME280;47227;46.752;23.576;2022-12-07T18:22:04;96158.23;;;0.46;84.97
61357;BME280;47227;46.752;23.576;2022-12-07T18:24:32;96153.73;;;0.49;85.01
61357;BME280;47227;46.752;23.576;2022-12-07T18:27:05;96155.02;;;0.50;85.11
61357;BME280;47227;46.752;23.576;2022-12-07T18:29:39;96152.27;;;0.53;85.36
61357;BME280;47227;46.752;23.576;2022-12-07T18:32:06;96153.32;;;0.55;85.52
61357;BME280;47227;46.752;23.576;2022-12-07T18:34:34;96152.59;;;0.55;85.72
61357;BME280;47227;46.752;23.576;2022-12-07T18:37:02;96150.98;;;0.51;85.78
61357;BME280;47227;46.752;23.576;2022-12-07T18:39:30;96151.70;;;0.46;85.62
61357;BME280;47227;46.752;23.576;2022-12-07T18:42:00;96153.83;;;0.40;85.69
61357;BME280;47227;46.752;23.576;2022-12-07T18:44:28;96156.06;;;0.31;85.66